Time;durP1;ratioP1;P1;durP2;ratioP2;P2;SDS_P1;SDS_P2;PMS_P1;PMS_P2;Temp;Humidity;BMP_temperature;BMP_pressure;BME280_temperature;BME280_humidity;BME280_pressure;Samples;Min_cycle;Max_cycle;Signal;HPM_P1;HPM_P2
2020/12/26 00:00:12;;;;;;;89.83;21.20;;;;;;;3.42;88.57;100289.44;5072450;28;20025;-66
2020/12/26 00:02:38;;;;;;;103.67;23.30;;;;;;;3.39;88.38;100277.34;5071795;28;20081;-69
2020/12/26 00:05:03;;;;;;;115.85;21.45;;;;;;;3.41;88.10;100285.09;5070285;28;20036;-69
2020/12/26 00:07:29;;;;;;;123.60;21.13;;;;;;;3.35;88.19;100285.63;5071899;28;20380;-68
2020/12/26 00:09:54;;;;;;;109.07;21.80;;;;;;;3.35;88.33;100283.06;5074351;28;20027;-69
2020/12/26 00:12:20;;;;;;;132.82;21.02;;;;;;;2.99;88.98;100281.59;5074246;28;20025;-68
2020/12/26 00:14:45;;;;;;;87.67;29.87;;;;;;;2.95;90.41;100293.25;5073517;28;20086;-65
2020/12/26 00:17:11;;;;;;;122.53;24.57;;;;;;;2.99;89.71;100286.69;5073866;28;20394;-68
2020/12/26 00:19:36;;;;;;;120.23;22.80;;;;;;;2.93;89.68;100297.41;5073943;28;20048;-66
2020/12/26 00:22:02;;;;;;;135.07;21.53;;;;;;;2.96;90.24;100296.72;5073867;28;20086;-66
2020/12/26 00:24:27;;;;;;;101.23;21.90;;;;;;;2.77;90.22;100262.38;5073665;28;20048;-69
2020/12/26 00:26:55;;;;;;;54.83;19.43;;;;;;;3.00;89.98;100291.88;5073435;28;20471;-69
2020/12/26 00:29:21;;;;;;;121.00;21.67;;;;;;;3.04;89.95;100286.22;5072449;28;20032;-67
2020/12/26 00:31:47;;;;;;;82.57;20.60;;;;;;;3.17;89.25;100300.63;5073168;28;20033;-68
2020/12/26 00:34:13;;;;;;;95.67;25.23;;;;;;;3.00;88.29;100256.19;5073172;28;20445;-70
2020/12/26 00:36:39;;;;;;;103.70;25.80;;;;;;;3.28;87.75;100293.66;5072045;28;20017;-66
2020/12/26 00:39:04;;;;;;;73.00;19.63;;;;;;;3.38;87.60;100284.94;5071798;28;20101;-69
2020/12/26 00:41:30;;;;;;;127.10;18.98;;;;;;;3.49;86.72;100300.88;5072492;28;20491;-65
2020/12/26 00:43:55;;;;;;;91.80;17.07;;;;;;;3.53;85.85;100305.41;5071254;28;20032;-69
2020/12/26 00:46:24;;;;;;;57.45;16.23;;;;;;;3.53;85.40;100300.31;5072935;28;20100;-67
2020/12/26 00:48:50;;;;;;;99.47;23.52;;;;;;;3.56;85.52;100293.72;5072466;28;20502;-66
2020/12/26 00:51:15;;;;;;;78.53;26.63;;;;;;;3.61;84.16;100301.66;5072502;28;20096;-69
2020/12/26 00:53:41;;;;;;;90.88;20.08;;;;;;;3.62;83.84;100305.97;5072477;28;20445;-69
2020/12/26 00:56:07;;;;;;;63.63;17.38;;;;;;;3.64;84.41;100303.50;5072173;28;20032;-68
2020/12/26 00:58:32;;;;;;;74.25;19.35;;;;;;;3.67;84.58;100293.50;5072365;28;20056;-68
2020/12/26 01:00:58;;;;;;;60.97;16.70;;;;;;;3.66;84.52;100281.53;5072133;28;20054;-65
2020/12/26 01:03:23;;;;;;;53.72;16.50;;;;;;;3.65;84.10;100289.97;5072164;28;20502;-70
2020/12/26 01:05:49;;;;;;;50.42;15.10;;;;;;;3.73;84.28;100294.75;5071933;28;20031;-68
2020/12/26 01:08:14;;;;;;;80.95;21.73;;;;;;;3.50;83.75;100259.28;5071971;28;20024;-68
2020/12/26 01:10:40;;;;;;;65.68;21.55;;;;;;;3.59;84.23;100298.16;5072027;28;20020;-68
2020/12/26 01:13:05;;;;;;;59.60;19.25;;;;;;;3.28;85.16;100297.88;5072081;28;20031;-69
2020/12/26 01:15:30;;;;;;;32.70;16.07;;;;;;;2.85;86.70;100303.66;5072107;28;20384;-65
2020/12/26 01:17:56;;;;;;;52.37;16.17;;;;;;;2.77;87.27;100289.50;5072115;28;20441;-69
2020/12/26 01:20:21;;;;;;;33.23;15.40;;;;;;;2.74;87.56;100292.75;5072213;28;20445;-66
2020/12/26 01:22:47;;;;;;;38.30;16.47;;;;;;;2.54;88.73;100305.09;5053300;28;20048;-68
2020/12/26 01:25:12;;;;;;;30.57;17.20;;;;;;;2.49;89.29;100300.44;5072240;28;20056;-67
2020/12/26 01:27:38;;;;;;;37.33;17.00;;;;;;;2.56;89.01;100302.63;5071422;28;20025;-69
2020/12/26 01:30:05;;;;;;;30.33;16.20;;;;;;;2.62;88.43;100297.03;5072039;28;20431;-66
2020/12/26 01:32:31;;;;;;;31.43;17.80;;;;;;;2.48;88.75;100284.28;5071942;28;20108;-66
2020/12/26 01:35:00;;;;;;;34.53;18.43;;;;;;;2.52;89.19;100296.44;5071910;28;20047;-68
2020/12/26 01:37:27;;;;;;;61.08;19.17;;;;;;;2.20;90.46;100300.25;5071764;28;20027;-68
2020/12/26 01:39:52;;;;;;;39.57;18.87;;;;;;;2.21;91.00;100302.03;5069116;28;20032;-69
2020/12/26 01:42:17;;;;;;;39.93;19.50;;;;;;;2.20;91.56;100297.72;5071610;28;20035;-68
2020/12/26 01:44:44;;;;;;;40.37;18.40;;;;;;;2.35;90.85;100291.91;5071273;28;20020;-68
2020/12/26 01:47:11;;;;;;;82.33;19.10;;;;;;;2.40;90.85;100290.53;5071618;28;20012;-65
2020/12/26 01:49:37;;;;;;;84.03;20.13;;;;;;;2.34;91.05;100285.91;5070075;28;20103;-67
2020/12/26 01:52:03;;;;;;;75.80;19.60;;;;;;;2.22;91.53;100292.75;5070222;28;20106;-65
2020/12/26 01:54:30;;;;;;;79.37;19.53;;;;;;;2.29;91.86;100296.56;5071260;28;20016;-68
2020/12/26 01:56:56;;;;;;;66.03;17.70;;;;;;;2.34;91.17;100297.75;5070422;28;20067;-66
2020/12/26 01:59:22;;;;;;;90.03;19.80;;;;;;;2.24;92.24;100301.34;5068154;28;20024;-70
2020/12/26 02:01:50;;;;;;;96.10;19.57;;;;;;;2.36;91.97;100293.66;5071538;28;20043;-66
2020/12/26 02:04:16;;;;;;;113.97;20.63;;;;;;;2.49;91.29;100296.22;5071548;28;20041;-72
2020/12/26 02:06:43;;;;;;;56.63;20.23;;;;;;;2.67;91.62;100301.66;5074993;28;20102;-69
2020/12/26 02:09:11;;;;;;;64.57;18.10;;;;;;;2.77;90.58;100292.06;5069094;28;20040;-71
2020/12/26 02:11:36;;;;;;;58.20;20.70;;;;;;;2.97;90.17;100311.22;5068675;28;20550;-67
2020/12/26 02:14:01;;;;;;;49.57;20.10;;;;;;;3.08;90.29;100310.25;5069366;28;20035;-71
2020/12/26 02:16:27;;;;;;;48.28;21.58;;;;;;;3.04;90.46;100287.88;5069116;28;20483;-65
2020/12/26 02:18:53;;;;;;;53.87;22.10;;;;;;;3.19;90.20;100316.03;5069221;28;20036;-71
2020/12/26 02:21:22;;;;;;;55.43;21.73;;;;;;;3.16;89.72;100319.25;5069248;28;20112;-69
2020/12/26 02:23:48;;;;;;;50.20;21.43;;;;;;;3.11;89.34;100302.78;5068651;28;20048;-69
2020/12/26 02:26:13;;;;;;;51.93;21.53;;;;;;;3.05;90.21;100305.84;5068941;28;20093;-70
2020/12/26 02:28:40;;;;;;;49.43;22.07;;;;;;;2.95;90.85;100293.25;5069055;28;20036;-71
2020/12/26 02:31:07;;;;;;;85.93;23.77;;;;;;;2.98;91.33;100296.03;5068902;28;20036;-72
2020/12/26 02:33:34;;;;;;;88.90;24.53;;;;;;;3.10;91.48;100305.25;5068822;28;20033;-71
2020/12/26 02:36:03;;;;;;;56.80;22.20;;;;;;;3.01;91.70;100268.16;5068912;28;20036;-69
2020/12/26 02:38:29;;;;;;;54.20;22.48;;;;;;;2.90;91.79;100244.53;5051522;28;20048;-70
2020/12/26 02:40:55;;;;;;;39.73;21.67;;;;;;;2.95;91.75;100280.50;5067510;28;20032;-69
2020/12/26 02:43:26;;;;;;;39.80;19.73;;;;;;;2.83;92.34;100270.41;5062185;28;20127;-68
2020/12/26 02:45:55;;;;;;;64.30;21.60;;;;;;;2.98;92.14;100302.78;5056672;28;20032;-71
2020/12/26 02:48:21;;;;;;;68.47;22.03;;;;;;;2.84;92.52;100261.09;5049581;28;20555;-68
2020/12/26 02:50:47;;;;;;;83.25;21.73;;;;;;;3.11;92.10;100300.22;5057669;28;20278;-71
2020/12/26 02:53:13;;;;;;;54.25;21.38;;;;;;;3.18;92.39;100304.94;5066561;28;20483;-72
2020/12/26 02:55:38;;;;;;;45.20;21.17;;;;;;;3.08;92.16;100303.47;5061659;28;20025;-72
2020/12/26 02:58:04;;;;;;;85.38;22.15;;;;;;;3.15;92.19;100311.53;5060204;28;20483;-73
2020/12/26 03:00:30;;;;;;;64.53;21.80;;;;;;;3.30;92.04;100317.63;5070693;28;20138;-73
2020/12/26 03:02:55;;;;;;;75.53;21.10;;;;;;;3.31;91.68;100304.03;5070427;28;20031;-73
2020/12/26 03:05:21;;;;;;;71.03;22.00;;;;;;;3.34;91.50;100303.34;5070508;28;20029;-73
2020/12/26 03:07:47;;;;;;;74.22;21.67;;;;;;;3.39;92.05;100294.34;5070459;28;20032;-69
2020/12/26 03:10:12;;;;;;;72.75;20.83;;;;;;;3.48;91.49;100305.13;5070559;28;20032;-71
2020/12/26 03:12:38;;;;;;;47.30;19.90;;;;;;;3.53;91.29;100302.88;5057854;28;20495;-68
2020/12/26 03:15:04;;;;;;;69.50;20.95;;;;;;;3.50;91.36;100295.00;5051334;28;20388;-64
2020/12/26 03:17:30;;;;;;;41.38;20.27;;;;;;;3.62;90.94;100317.88;5051162;28;20021;-68
2020/12/26 03:19:58;;;;;;;55.55;23.00;;;;;;;3.69;90.79;100317.47;5052347;28;20029;-67
2020/12/26 03:22:27;;;;;;;53.55;21.90;;;;;;;3.77;90.51;100339.22;5062898;28;20029;-68
2020/12/26 03:24:53;;;;;;;64.05;20.55;;;;;;;3.64;90.05;100303.50;5069201;28;20057;-70
2020/12/26 03:27:19;;;;;;;65.10;22.05;;;;;;;3.91;89.54;100327.31;5069048;28;20037;-68
2020/12/26 03:29:44;;;;;;;39.60;20.35;;;;;;;3.80;89.78;100305.34;5060752;28;20040;-73
2020/12/26 03:32:10;;;;;;;34.20;21.13;;;;;;;3.64;89.74;100313.72;5054418;28;20021;-70
2020/12/26 03:34:36;;;;;;;33.28;20.00;;;;;;;3.40;90.41;100319.97;5056041;28;20419;-71
2020/12/26 03:37:01;;;;;;;38.20;19.33;;;;;;;3.24;91.36;100322.31;5055454;28;20110;-69
2020/12/26 03:39:27;;;;;;;41.90;21.40;;;;;;;3.05;92.54;100316.03;5058516;28;20059;-70
2020/12/26 03:41:52;;;;;;;57.73;23.73;;;;;;;2.89;93.21;100280.13;5063501;28;20685;-69
2020/12/26 03:44:18;;;;;;;53.40;24.13;;;;;;;3.22;93.45;100324.75;5057773;28;20500;-68
2020/12/26 03:46:43;;;;;;;49.47;24.00;;;;;;;3.20;93.23;100326.34;5056902;28;20028;-69
2020/12/26 03:49:09;;;;;;;65.03;23.03;;;;;;;3.18;93.58;100314.28;5055130;28;20067;-69
2020/12/26 03:51:34;;;;;;;73.57;23.00;;;;;;;3.27;93.51;100312.31;5055932;28;20115;-69
2020/12/26 03:54:00;;;;;;;69.70;25.60;;;;;;;3.19;93.81;100285.41;5057010;28;20369;-69
2020/12/26 03:56:25;;;;;;;56.25;24.08;;;;;;;3.54;93.11;100317.41;5054704;28;20027;-72
2020/12/26 03:58:51;;;;;;;80.40;23.92;;;;;;;3.59;92.68;100317.66;5054885;28;20025;-69
2020/12/26 04:01:16;;;;;;;83.13;23.25;;;;;;;3.55;92.42;100325.16;5055282;28;20111;-69
2020/12/26 04:03:41;;;;;;;58.03;22.48;;;;;;;3.54;92.43;100332.72;5054110;28;20033;-67
2020/12/26 04:06:07;;;;;;;73.63;24.30;;;;;;;3.54;92.56;100342.91;5053472;28;20035;-70
2020/12/26 04:08:32;;;;;;;55.17;22.30;;;;;;;3.62;92.64;100339.16;5053484;28;20031;-69
2020/12/26 04:10:58;;;;;;;91.65;21.83;;;;;;;3.63;92.10;100323.06;5056289;28;20032;-69
2020/12/26 04:13:23;;;;;;;75.47;23.92;;;;;;;3.65;91.91;100311.28;5053880;28;20491;-67
2020/12/26 04:15:48;;;;;;;92.05;24.38;;;;;;;3.83;91.52;100331.09;5055604;28;20471;-68
2020/12/26 04:18:14;;;;;;;70.10;22.85;;;;;;;3.81;91.05;100319.88;5054842;28;20571;-67
2020/12/26 04:20:40;;;;;;;71.63;23.45;;;;;;;3.91;91.22;100324.75;5055708;28;20423;-68
2020/12/26 04:23:05;;;;;;;104.80;24.65;;;;;;;3.79;91.07;100290.81;5053702;28;20029;-70
2020/12/26 04:25:31;;;;;;;85.72;24.45;;;;;;;3.81;90.70;100276.47;5057093;28;20404;-68
2020/12/26 04:27:57;;;;;;;121.45;24.98;;;;;;;4.07;90.14;100326.56;5056400;28;20373;-70
2020/12/26 04:30:23;;;;;;;101.25;23.80;;;;;;;3.81;90.43;100285.00;5060360;28;20017;-65
2020/12/26 04:32:48;;;;;;;54.45;23.55;;;;;;;3.92;90.35;100305.22;5063710;28;20487;-70
2020/12/26 04:35:14;;;;;;;77.72;23.50;;;;;;;3.68;91.11;100269.75;5056313;28;20497;-69
2020/12/26 04:37:39;;;;;;;61.33;24.85;;;;;;;3.82;91.19;100311.44;5061492;28;20029;-68
2020/12/26 04:40:05;;;;;;;77.40;24.73;;;;;;;3.77;91.59;100306.03;5058057;28;20039;-71
2020/12/26 04:42:33;;;;;;;76.28;24.65;;;;;;;3.69;91.53;100313.22;5059838;28;20423;-68
2020/12/26 04:44:59;;;;;;;79.05;25.90;;;;;;;3.68;92.08;100316.56;5055996;28;20033;-70
2020/12/26 04:47:30;;;;;;;137.63;26.42;;;;;;;3.58;92.28;100287.81;5053578;28;20480;-73
2020/12/26 04:50:01;;;;;;;63.92;23.77;;;;;;;3.59;91.99;100304.91;5054115;28;20021;-73
2020/12/26 04:52:30;;;;;;;51.08;23.75;;;;;;;3.39;92.73;100282.47;5054470;28;20036;-68
2020/12/26 04:54:55;;;;;;;91.57;25.52;;;;;;;3.58;92.75;100332.09;5068716;28;20404;-70
2020/12/26 04:57:22;;;;;;;79.10;25.25;;;;;;;3.52;92.63;100334.28;5054122;28;20036;-70
2020/12/26 04:59:48;;;;;;;61.38;25.27;;;;;;;3.53;92.86;100333.50;5056113;28;20502;-67
2020/12/26 05:02:14;;;;;;;72.90;24.23;;;;;;;3.53;92.76;100325.84;5051554;28;20029;-68
2020/12/26 05:04:43;;;;;;;93.68;24.95;;;;;;;3.48;92.66;100332.31;5052578;28;20415;-69
2020/12/26 05:07:10;;;;;;;115.15;26.27;;;;;;;3.48;92.86;100330.66;5052561;28;20025;-68
2020/12/26 05:09:36;;;;;;;100.57;26.55;;;;;;;3.42;93.02;100307.28;5051658;28;20071;-70
2020/12/26 05:12:03;;;;;;;81.57;25.63;;;;;;;3.68;92.81;100333.56;5054444;28;20466;-70
2020/12/26 05:14:31;;;;;;;104.07;25.77;;;;;;;3.72;92.19;100328.72;5054883;28;20082;-69
2020/12/26 05:16:57;;;;;;;81.07;24.17;;;;;;;3.37;91.66;100272.94;5052814;28;20025;-70
2020/12/26 05:19:23;;;;;;;69.45;25.30;;;;;;;3.59;91.72;100313.47;5055247;28;20021;-72
2020/12/26 05:21:54;;;;;;;77.30;23.30;;;;;;;3.81;91.84;100336.06;5053163;28;20540;-72
2020/12/26 05:24:20;;;;;;;116.43;27.88;;;;;;;3.59;91.30;100307.44;5055071;28;20076;-71
2020/12/26 05:26:48;;;;;;;90.75;25.38;;;;;;;3.68;91.21;100342.09;5083463;28;20091;-68
2020/12/26 05:29:14;;;;;;;82.43;27.27;;;;;;;3.73;91.51;100343.25;5034202;28;20098;-69
2020/12/26 05:31:59;;;;;;;81.35;28.95;;;;;;;3.80;91.58;100343.66;5052038;28;20076;-70
2020/12/26 05:34:38;;;;;;;100.40;26.65;;;;;;;3.85;91.37;100353.38;5051712;28;20459;-70
2020/12/26 05:37:04;;;;;;;95.05;24.77;;;;;;;3.77;91.29;100351.13;5053832;28;20136;-70
2020/12/26 05:39:33;;;;;;;82.63;24.65;;;;;;;3.70;90.94;100348.19;5054855;28;20032;-70
2020/12/26 05:41:59;;;;;;;63.95;27.30;;;;;;;3.66;91.21;100335.13;5062642;28;20028;-69
2020/12/26 05:44:30;;;;;;;84.03;26.63;;;;;;;3.62;91.83;100325.53;5057821;28;20032;-70
2020/12/26 05:47:01;;;;;;;122.65;43.17;;;;;;;3.69;91.39;100307.25;5051329;28;20573;-70
2020/12/26 05:49:32;;;;;;;102.13;34.90;;;;;;;3.89;91.27;100341.69;5052014;28;20483;-68
2020/12/26 05:52:08;;;;;;;97.00;29.02;;;;;;;3.91;90.91;100340.09;5060507;28;20078;-69
2020/12/26 05:54:35;;;;;;;88.05;25.63;;;;;;;3.70;91.05;100301.34;5067551;28;20032;-69
2020/12/26 05:57:08;;;;;;;81.28;26.80;;;;;;;3.97;90.95;100349.81;5071984;28;20047;-68
2020/12/26 05:59:33;;;;;;;93.78;28.50;;;;;;;4.03;90.44;100345.94;5071793;28;20024;-65
2020/12/26 06:02:16;;;;;;;47.25;23.90;;;;;;;4.02;90.55;100366.28;5072075;28;20031;-67
2020/12/26 06:04:50;;;;;;;72.80;24.45;;;;;;;3.76;90.34;100369.78;5071678;28;20112;-68
2020/12/26 06:07:17;;;;;;;69.38;35.10;;;;;;;3.82;90.99;100378.69;5071729;28;20033;-66
2020/12/26 06:09:45;;;;;;;65.15;28.90;;;;;;;3.83;91.10;100383.03;5071728;28;20035;-67
2020/12/26 06:12:16;;;;;;;53.45;24.95;;;;;;;3.48;91.04;100334.88;5071341;28;20051;-65
2020/12/26 06:14:42;;;;;;;53.65;25.02;;;;;;;3.64;91.20;100368.22;5071540;28;20139;-68
2020/12/26 06:17:08;;;;;;;58.90;27.33;;;;;;;3.60;91.41;100362.84;5071518;28;20024;-65
2020/12/26 06:19:36;;;;;;;71.38;27.23;;;;;;;3.65;91.88;100354.69;5071617;28;20024;-69
2020/12/26 06:22:02;;;;;;;86.28;28.08;;;;;;;3.30;91.31;100289.56;5071369;28;20085;-65
2020/12/26 06:24:27;;;;;;;52.45;26.33;;;;;;;3.78;91.08;100347.78;5071355;28;20057;-66
2020/12/26 06:26:58;;;;;;;42.45;25.02;;;;;;;3.62;91.44;100334.06;5071776;28;20475;-69
2020/12/26 06:29:30;;;;;;;43.58;22.00;;;;;;;3.33;92.67;100345.00;5071572;28;20032;-69
2020/12/26 06:31:57;;;;;;;50.60;22.27;;;;;;;3.21;93.57;100345.94;5071486;28;20036;-68
2020/12/26 06:34:22;;;;;;;63.67;26.98;;;;;;;3.30;93.92;100347.34;5071445;28;20155;-68
2020/12/26 06:36:54;;;;;;;45.83;23.17;;;;;;;3.28;93.56;100343.78;5071629;28;20103;-66
2020/12/26 06:39:31;;;;;;;58.63;26.33;;;;;;;3.38;93.30;100354.69;5086094;28;20721;-69
2020/12/26 06:42:14;;;;;;;47.53;25.48;;;;;;;3.58;93.00;100346.53;5071416;28;20029;-69
2020/12/26 06:44:41;;;;;;;46.58;24.73;;;;;;;3.72;92.29;100341.50;5071384;28;20040;-70
2020/12/26 06:47:06;;;;;;;46.08;24.95;;;;;;;3.60;91.84;100312.69;5071011;28;20494;-71
2020/12/26 06:49:32;;;;;;;52.55;27.02;;;;;;;3.82;91.46;100332.72;5071071;28;20060;-68
2020/12/26 06:51:58;;;;;;;76.88;30.33;;;;;;;4.00;91.04;100342.31;5071056;28;20029;-66
2020/12/26 06:54:37;;;;;;;69.85;30.25;;;;;;;4.07;90.55;100344.47;5071160;28;20025;-66
2020/12/26 06:57:03;;;;;;;;;;;;;;;4.11;90.16;100345.53;5053623;28;20396;-69
2020/12/26 06:59:36;;;;;;;73.70;30.38;;;;;;;3.97;90.03;100322.56;5075199;28;19999;-70
2020/12/26 07:02:07;;;;;;;72.82;28.92;;;;;;;4.18;90.17;100352.78;5075061;28;20040;-68
2020/12/26 07:04:40;;;;;;;79.53;27.50;;;;;;;4.24;89.51;100357.38;5074979;28;20025;-70
2020/12/26 07:07:07;;;;;;;70.10;34.28;;;;;;;3.97;89.73;100319.16;5074734;28;20034;-65
2020/12/26 07:09:35;;;;;;;87.63;31.77;;;;;;;4.26;89.63;100361.81;5074830;28;20035;-66
2020/12/26 07:12:00;;;;;;;80.10;27.98;;;;;;;4.19;89.97;100367.34;5075186;28;20368;-70
2020/12/26 07:14:51;;;;;;;81.75;28.67;;;;;;;4.12;89.97;100368.63;5074999;28;20035;-68
2020/12/26 07:17:19;;;;;;;74.32;31.00;;;;;;;3.97;90.64;100377.91;5074612;28;20032;-70
2020/12/26 07:19:46;;;;;;;94.93;36.65;;;;;;;3.90;91.49;100384.31;5074393;28;20033;-69
2020/12/26 07:22:31;;;;;;;102.65;31.17;;;;;;;3.82;91.95;100390.59;5074811;28;20453;-65
2020/12/26 07:25:03;;;;;;;57.85;27.38;;;;;;;3.57;92.04;100363.53;5073397;28;20049;-65
2020/12/26 07:27:47;;;;;;;93.88;54.17;;;;;;;3.73;92.23;100396.88;5074641;28;20039;-72
2020/12/26 07:30:15;;;;;;;63.97;34.83;;;;;;;3.66;92.35;100388.75;5074424;28;20391;-66
2020/12/26 07:32:57;;;;;;;87.97;29.98;;;;;;;3.67;92.76;100393.06;5074146;28;20438;-71
2020/12/26 07:35:22;;;;;;;71.50;29.38;;;;;;;3.65;93.18;100397.19;5074662;28;20028;-65
2020/12/26 07:37:51;;;;;;;110.03;28.50;;;;;;;3.58;93.70;100390.81;5074505;28;20029;-66
2020/12/26 07:40:19;;;;;;;88.38;29.08;;;;;;;3.44;93.79;100372.06;5074258;28;20414;-69
2020/12/26 07:42:45;;;;;;;95.60;29.55;;;;;;;3.51;93.50;100396.31;5074112;28;20032;-68
2020/12/26 07:45:12;;;;;;;100.82;30.25;;;;;;;3.50;93.49;100392.88;5074165;28;20025;-65
2020/12/26 07:47:42;;;;;;;77.32;28.25;;;;;;;3.48;94.10;100399.56;5074223;28;20036;-71
2020/12/26 07:50:14;;;;;;;88.10;43.97;;;;;;;3.34;94.08;100390.13;5074451;28;20024;-68
2020/12/26 07:52:45;;;;;;;58.97;29.37;;;;;;;3.26;93.95;100398.97;5074083;28;20514;-68
2020/12/26 07:55:10;;;;;;;63.07;24.67;;;;;;;3.27;94.28;100400.72;5088870;28;20557;-65
2020/12/26 07:57:36;;;;;;;63.07;27.40;;;;;;;3.27;94.81;100398.19;5074278;28;20032;-65
2020/12/26 08:00:02;;;;;;;67.57;27.43;;;;;;;3.31;94.82;100389.94;5074302;28;20486;-70
2020/12/26 08:02:28;;;;;;;54.50;26.67;;;;;;;3.40;95.01;100399.06;5074058;28;20029;-66
2020/12/26 08:04:53;;;;;;;83.80;39.30;;;;;;;3.49;94.22;100392.78;5073813;28;20165;-64
2020/12/26 08:07:19;;;;;;;75.87;35.33;;;;;;;3.30;93.89;100377.94;5073787;28;20028;-69
2020/12/26 08:09:52;;;;;;;82.20;41.33;;;;;;;3.37;94.19;100390.31;5073018;28;20020;-68
2020/12/26 08:12:19;;;;;;;60.45;26.80;;;;;;;3.37;94.52;100411.63;5073912;28;20032;-65
2020/12/26 08:14:56;;;;;;;53.73;26.27;;;;;;;3.15;93.98;100382.94;5073751;28;20107;-65
2020/12/26 08:17:22;;;;;;;80.43;47.97;;;;;;;3.23;94.23;100379.25;5073640;28;20029;-70
2020/12/26 08:19:48;;;;;;;58.03;26.73;;;;;;;3.30;94.59;100399.28;5074306;28;20089;-68
2020/12/26 08:22:14;;;;;;;45.23;25.43;;;;;;;3.36;94.61;100403.88;5073443;28;20025;-64
2020/12/26 08:24:39;;;;;;;50.57;25.53;;;;;;;3.40;94.66;100408.38;5073371;28;20130;-65
2020/12/26 08:27:06;;;;;;;52.15;29.88;;;;;;;3.47;94.95;100397.78;5073488;28;20037;-64
2020/12/26 08:29:32;;;;;;;58.75;30.33;;;;;;;3.53;94.64;100402.41;5073510;28;20029;-70
2020/12/26 08:32:11;;;;;;;81.40;39.40;;;;;;;3.56;94.54;100405.16;5073682;28;20475;-64
2020/12/26 08:35:00;;;;;;;54.65;31.45;;;;;;;3.61;94.51;100401.22;5073142;28;20044;-64
2020/12/26 08:37:39;;;;;;;66.40;39.20;;;;;;;3.65;93.72;100405.75;5072163;28;20028;-64
2020/12/26 08:40:11;;;;;;;62.45;38.97;;;;;;;3.64;93.88;100398.88;5073235;28;20024;-70
2020/12/26 08:42:37;;;;;;;87.38;53.60;;;;;;;3.64;93.55;100405.63;5072056;28;20039;-71
2020/12/26 08:45:32;;;;;;;75.45;44.15;;;;;;;3.63;93.33;100409.88;5073234;28;20463;-64
2020/12/26 08:48:01;;;;;;;69.78;41.47;;;;;;;3.70;93.82;100391.59;5073548;28;20033;-68
2020/12/26 08:50:29;;;;;;;61.60;42.17;;;;;;;3.79;93.46;100395.50;5073115;28;20501;-67
2020/12/26 08:53:15;;;;;;;59.22;37.35;;;;;;;3.97;92.88;100406.88;5073302;28;20167;-67
2020/12/26 08:55:48;;;;;;;46.17;29.05;;;;;;;4.05;92.77;100404.81;5072641;28;20106;-65
2020/12/26 08:58:27;;;;;;;41.05;24.08;;;;;;;4.10;91.87;100403.44;5073199;28;20028;-69
2020/12/26 09:01:04;;;;;;;32.65;22.35;;;;;;;4.02;91.77;100389.28;5072743;28;20028;-68
2020/12/26 09:03:32;;;;;;;41.65;25.88;;;;;;;4.18;91.71;100393.66;5072788;28;20050;-71
2020/12/26 09:05:59;;;;;;;43.45;31.63;;;;;;;4.28;91.18;100390.88;5072767;28;20033;-68
2020/12/26 09:08:35;;;;;;;34.13;23.83;;;;;;;4.32;90.51;100395.38;5072803;28;20498;-67
2020/12/26 09:11:08;;;;;;;35.00;23.55;;;;;;;4.33;90.67;100375.84;5072886;28;20117;-69
2020/12/26 09:13:41;;;;;;;33.70;24.17;;;;;;;4.37;91.11;100385.44;5071940;28;20028;-68
2020/12/26 09:16:09;;;;;;;33.13;23.42;;;;;;;4.36;91.03;100379.47;5072001;28;20068;-66
2020/12/26 09:18:50;;;;;;;35.42;25.50;;;;;;;4.47;90.83;100395.41;5071685;28;20029;-70
2020/12/26 09:21:29;;;;;;;41.63;28.77;;;;;;;4.55;90.60;100385.69;5069295;28;20036;-68
2020/12/26 09:23:56;;;;;;;36.30;23.42;;;;;;;4.57;90.29;100376.41;5072154;28;20121;-64
2020/12/26 09:26:26;;;;;;;52.33;35.38;;;;;;;4.64;90.41;100365.75;5071745;28;20386;-65
2020/12/26 09:28:56;;;;;;;37.35;25.23;;;;;;;4.55;90.23;100347.31;5069230;28;20028;-71
2020/12/26 09:31:25;;;;;;;35.55;23.95;;;;;;;4.75;89.63;100371.50;5071819;28;20548;-64
2020/12/26 09:33:53;;;;;;;42.67;25.75;;;;;;;4.56;90.08;100325.19;5072128;28;20031;-65
2020/12/26 09:36:21;;;;;;;40.05;24.92;;;;;;;4.84;89.78;100363.50;5071334;28;20025;-65
2020/12/26 09:38:49;;;;;;;48.00;28.80;;;;;;;4.91;89.04;100369.84;5068368;28;20024;-71
2020/12/26 09:41:18;;;;;;;41.35;26.42;;;;;;;4.92;88.56;100359.72;5059624;28;20051;-64
2020/12/26 09:43:45;;;;;;;;;;;;;;;5.00;88.60;100355.91;5072169;28;20433;-67
2020/12/26 09:46:12;;;;;;;36.47;23.90;;;;;;;5.04;88.50;100359.53;5071608;28;19913;-64
2020/12/26 09:48:37;;;;;;;39.15;28.42;;;;;;;5.04;89.15;100374.88;5071167;28;20059;-64
2020/12/26 09:51:04;;;;;;;38.47;29.05;;;;;;;4.99;89.38;100377.16;5071597;28;20056;-68
2020/12/26 09:53:29;;;;;;;43.08;31.10;;;;;;;4.86;89.98;100374.72;5071452;28;20021;-68
2020/12/26 09:55:55;;;;;;;74.30;50.47;;;;;;;4.74;90.19;100381.66;5071227;28;20106;-67
2020/12/26 09:58:20;;;;;;;66.78;48.47;;;;;;;4.78;91.33;100375.91;5071078;28;20048;-67
2020/12/26 10:00:46;;;;;;;67.93;46.50;;;;;;;4.84;91.06;100366.91;5071597;28;20448;-64
2020/12/26 10:03:11;;;;;;;76.70;54.03;;;;;;;4.95;90.42;100353.88;5071346;28;20024;-68
2020/12/26 10:05:37;;;;;;;60.20;39.63;;;;;;;5.05;89.79;100355.28;5071143;28;20031;-64
2020/12/26 10:08:03;;;;;;;63.55;41.20;;;;;;;5.02;90.08;100346.66;5071158;28;20024;-71
2020/12/26 10:10:29;;;;;;;65.93;43.05;;;;;;;5.04;89.25;100338.19;5071119;28;20032;-68
2020/12/26 10:12:54;;;;;;;70.10;41.97;;;;;;;5.16;88.85;100364.47;5071357;28;20077;-68
2020/12/26 10:15:20;;;;;;;68.32;42.20;;;;;;;5.25;88.82;100349.63;5070941;28;20017;-68
2020/12/26 10:17:45;;;;;;;69.28;42.92;;;;;;;5.29;88.59;100332.75;5070918;28;20017;-68
2020/12/26 10:20:11;;;;;;;69.18;41.50;;;;;;;5.14;88.42;100320.00;5071206;28;20017;-67
2020/12/26 10:22:36;;;;;;;68.03;43.22;;;;;;;5.26;88.72;100355.59;5071299;28;20052;-65
2020/12/26 10:25:02;;;;;;;71.88;42.70;;;;;;;5.35;88.87;100339.09;5069709;28;20049;-65
2020/12/26 10:27:28;;;;;;;67.30;41.45;;;;;;;5.16;88.26;100314.16;5071051;28;20099;-65
2020/12/26 10:29:53;;;;;;;74.47;44.10;;;;;;;5.44;88.61;100345.53;5070743;28;20028;-64
2020/12/26 10:32:19;;;;;;;66.88;42.30;;;;;;;5.58;88.76;100341.16;5069385;28;20029;-66
2020/12/26 10:34:44;;;;;;;67.43;41.53;;;;;;;5.55;87.90;100328.22;5070723;28;20027;-68
2020/12/26 10:37:12;;;;;;;86.68;49.10;;;;;;;5.49;88.38;100313.38;5071050;28;20472;-68
2020/12/26 10:39:38;;;;;;;77.72;46.78;;;;;;;5.72;88.77;100344.47;5070791;28;20020;-65
2020/12/26 10:42:03;;;;;;;77.28;44.58;;;;;;;5.76;87.83;100338.75;5071066;28;20570;-64
2020/12/26 10:44:29;;;;;;;73.45;45.47;;;;;;;5.72;87.64;100329.09;5070570;28;20509;-65
2020/12/26 10:46:55;;;;;;;71.13;44.33;;;;;;;5.89;87.47;100330.91;5070817;28;20063;-66
2020/12/26 10:49:21;;;;;;;75.95;45.85;;;;;;;5.94;87.83;100328.59;5070669;28;20031;-68
2020/12/26 10:51:49;;;;;;;69.68;42.95;;;;;;;5.94;87.52;100306.44;5070777;28;20016;-67
2020/12/26 10:54:15;;;;;;;65.67;41.73;;;;;;;6.01;86.68;100305.09;5070451;28;20063;-69
2020/12/26 10:56:47;;;;;;;62.67;39.53;;;;;;;6.12;86.44;100318.47;5070991;28;20056;-68
2020/12/26 10:59:14;;;;;;;61.40;39.60;;;;;;;6.06;86.52;100321.59;5068013;28;20025;-67
2020/12/26 11:01:39;;;;;;;56.65;37.92;;;;;;;6.08;86.44;100325.13;5070572;28;20032;-65
2020/12/26 11:04:05;;;;;;;68.53;44.58;;;;;;;6.11;86.60;100334.66;5067947;28;20495;-69
2020/12/26 11:06:30;;;;;;;74.57;46.50;;;;;;;5.95;87.30;100322.66;5068057;28;20068;-68
2020/12/26 11:08:56;;;;;;;74.88;46.25;;;;;;;5.70;87.87;100318.78;5068076;28;20135;-68
2020/12/26 11:11:21;;;;;;;72.65;46.30;;;;;;;5.53;88.91;100312.75;5068423;28;20044;-67
2020/12/26 11:13:47;;;;;;;77.18;46.20;;;;;;;5.68;90.02;100325.50;5068207;28;20063;-69
2020/12/26 11:16:14;;;;;;;73.50;47.08;;;;;;;5.90;89.53;100319.84;5068243;28;20029;-70
2020/12/26 11:18:41;;;;;;;75.03;48.22;;;;;;;6.02;89.55;100311.97;5068513;28;20094;-71